Time;durP1;ratioP1;P1;durP2;ratioP2;P2;SDS_P1;SDS_P2;PMS_P1;PMS_P2;Temp;Humidity;BMP_temperature;BMP_pressure;BME280_temperature;BME280_humidity;BME280_pressure;Samples;Min_cycle;Max_cycle;Signal;HPM_P1;HPM_P2
2022/04/25 00:00:19;;;;;;;2.30;2.13;;;9.90;99.90;;;;;;5153465;27;20441;-48
2022/04/25 00:02:50;;;;;;;2.70;2.00;;;9.80;99.90;;;;;;5153545;27;20480;-46
2022/04/25 00:05:16;;;;;;;2.47;1.90;;;9.70;99.90;;;;;;5153173;27;20785;-45
2022/04/25 00:07:43;;;;;;;1.63;1.50;;;9.70;99.90;;;;;;5153355;27;20495;-46
2022/04/25 00:10:10;;;;;;;2.10;1.73;;;9.50;99.90;;;;;;5153578;27;20489;-46
2022/04/25 00:12:37;;;;;;;2.10;1.80;;;9.60;99.90;;;;;;5153280;27;20481;-48
2022/04/25 00:15:05;;;;;;;2.03;1.50;;;9.60;99.90;;;;;;5153235;27;20994;-46
2022/04/25 00:17:32;;;;;;;1.67;1.53;;;9.70;99.90;;;;;;5153134;27;20489;-48
2022/04/25 00:20:01;;;;;;;2.87;2.10;;;9.80;99.90;;;;;;5152826;27;20535;-46
2022/04/25 00:22:28;;;;;;;1.67;1.57;;;9.90;99.90;;;;;;5152263;27;20860;-45
2022/04/25 00:24:54;;;;;;;2.23;2.03;;;9.90;99.90;;;;;;5153012;27;20496;-47
2022/04/25 00:27:22;;;;;;;1.50;1.30;;;9.90;99.90;;;;;;5152933;27;20946;-46
2022/04/25 00:29:48;;;;;;;1.90;1.70;;;9.90;99.90;;;;;;5153029;27;20861;-47
2022/04/25 00:32:15;;;;;;;1.40;1.30;;;10.00;99.90;;;;;;5152784;27;20879;-47
2022/04/25 00:34:42;;;;;;;1.10;1.00;;;10.00;99.90;;;;;;5152732;27;20476;-46
2022/04/25 00:37:11;;;;;;;1.40;1.30;;;10.10;99.90;;;;;;5152921;27;20958;-46
2022/04/25 00:39:37;;;;;;;1.53;1.30;;;10.10;99.90;;;;;;5152746;27;20931;-48
2022/04/25 00:42:05;;;;;;;1.17;1.07;;;10.00;99.90;;;;;;5152720;27;20564;-50
2022/04/25 00:44:32;;;;;;;1.20;1.00;;;10.00;99.90;;;;;;5152512;27;20532;-48
2022/04/25 00:47:01;;;;;;;1.40;1.30;;;10.00;99.90;;;;;;5152739;27;20489;-50
2022/04/25 00:49:28;;;;;;;1.63;1.53;;;10.00;99.90;;;;;;5152638;27;20836;-49
2022/04/25 00:51:54;;;;;;;1.50;1.40;;;9.90;99.90;;;;;;5152797;27;20497;-49
2022/04/25 00:54:23;;;;;;;2.00;1.80;;;9.80;99.90;;;;;;5152459;27;20479;-48
2022/04/25 00:56:50;;;;;;;3.30;1.80;;;9.70;99.90;;;;;;5152842;27;20445;-51
2022/04/25 00:59:19;;;;;;;2.60;2.10;;;8.90;99.90;;;;;;5151652;27;20494;-48
2022/04/25 01:01:46;;;;;;;2.30;2.00;;;8.40;99.90;;;;;;5152205;27;20508;-48
2022/04/25 01:04:13;;;;;;;2.20;1.93;;;8.00;99.90;;;;;;5152028;27;20523;-48
2022/04/25 01:06:41;;;;;;;2.43;1.80;;;7.80;99.90;;;;;;5152488;27;20479;-48
2022/04/25 01:09:08;;;;;;;2.10;1.90;;;7.70;99.90;;;;;;5152563;27;20525;-48
2022/04/25 01:11:36;;;;;;;2.60;1.70;;;7.70;99.90;;;;;;5152408;27;20938;-48
2022/04/25 01:14:14;;;;;;;1.30;1.20;;;8.10;99.90;;;;;;5152297;27;20910;-51
2022/04/25 01:16:41;;;;;;;2.40;2.20;;;8.40;99.90;;;;;;5152411;27;20448;-48
2022/04/25 01:19:08;;;;;;;2.00;1.80;;;8.30;99.90;;;;;;5152268;27;20535;-49
2022/04/25 01:21:41;;;;;;;1.70;1.60;;;8.10;99.90;;;;;;5152368;27;20520;-48
2022/04/25 01:29:40;;;;;;;1.80;1.37;;;8.70;99.90;;;;;;5152556;27;20418;-48
2022/04/25 01:32:08;;;;;;;1.97;1.43;;;8.90;99.90;;;;;;5152196;27;20477;-50
2022/04/25 01:34:36;;;;;;;1.40;1.30;;;9.10;99.90;;;;;;5151991;27;20440;-51
2022/04/25 01:37:06;;;;;;;1.30;1.17;;;8.90;99.90;;;;;;5152436;27;20468;-48
2022/04/25 01:39:35;;;;;;;1.67;1.57;;;8.70;99.90;;;;;;5152016;27;20453;-50
2022/04/25 01:42:03;;;;;;;2.20;1.60;;;8.80;99.90;;;;;;5152227;27;20469;-49
2022/04/25 01:44:30;;;;;;;2.37;1.80;;;8.90;99.90;;;;;;5151867;27;20961;-48
2022/04/25 01:46:57;;;;;;;3.40;2.20;;;9.00;99.90;;;;;;5151956;27;20497;-50
2022/04/25 01:49:24;;;;;;;1.40;1.20;;;9.20;99.90;;;;;;5151747;27;20492;-51
2022/04/25 01:51:51;;;;;;;2.53;1.20;;;9.40;99.90;;;;;;5151996;27;20475;-48
2022/04/25 01:54:24;;;;;;;1.90;1.80;;;9.50;99.90;;;;;;5151742;27;20472;-51
2022/04/25 01:56:53;;;;;;;1.60;1.50;;;9.60;99.90;;;;;;5152071;27;20451;-48
2022/04/25 01:59:20;;;;;;;1.63;1.53;;;9.70;99.90;;;;;;5151996;27;20503;-51
2022/04/25 02:01:47;;;;;;;1.43;1.33;;;9.70;99.90;;;;;;5151450;27;20468;-51
2022/04/25 02:04:14;;;;;;;1.93;1.43;;;9.70;99.90;;;;;;5151817;27;20523;-48
2022/04/25 02:06:41;;;;;;;1.23;1.10;;;9.70;99.90;;;;;;5152030;27;20440;-48
2022/04/25 02:09:09;;;;;;;1.37;1.20;;;9.70;99.90;;;;;;5151800;27;20481;-48
2022/04/25 02:11:36;;;;;;;1.30;1.20;;;9.60;99.90;;;;;;5154475;27;20443;-48
2022/04/25 02:14:04;;;;;;;1.00;0.80;;;9.30;99.90;;;;;;5155476;27;20856;-48
2022/04/25 02:16:31;;;;;;;1.40;1.30;;;9.40;99.90;;;;;;5155815;27;20456;-48
2022/04/25 02:18:58;;;;;;;1.33;1.10;;;9.50;99.90;;;;;;5155697;27;20461;-48
2022/04/25 02:21:25;;;;;;;1.50;1.13;;;9.60;99.90;;;;;;5155422;27;20523;-48
2022/04/25 02:23:52;;;;;;;2.10;1.60;;;9.50;99.90;;;;;;5155127;27;20454;-49
2022/04/25 02:26:19;;;;;;;1.53;1.43;;;9.50;99.90;;;;;;5154712;27;20939;-48
2022/04/25 02:28:46;;;;;;;1.40;1.20;;;9.60;99.90;;;;;;5155405;27;20465;-48
2022/04/25 02:31:15;;;;;;;1.93;1.30;;;9.60;99.90;;;;;;5155474;27;20542;-49
2022/04/25 02:33:43;;;;;;;1.10;1.00;;;9.60;99.90;;;;;;5154963;27;20489;-51
2022/04/25 02:36:12;;;;;;;2.40;1.50;;;9.70;99.90;;;;;;5155471;27;20441;-47
2022/04/25 02:38:40;;;;;;;1.20;1.10;;;9.70;99.90;;;;;;5154935;27;20985;-48
2022/04/25 02:41:08;;;;;;;1.30;1.20;;;9.70;99.90;;;;;;5154953;27;20904;-47
2022/04/25 02:43:37;;;;;;;1.30;1.20;;;9.80;99.90;;;;;;5154778;27;20480;-48
2022/04/25 02:46:05;;;;;;;1.60;1.43;;;9.70;99.90;;;;;;5155082;27;20537;-48
2022/04/25 02:48:35;;;;;;;1.40;1.13;;;9.60;99.90;;;;;;5155075;27;20531;-49
2022/04/25 02:51:02;;;;;;;1.10;0.93;;;9.50;99.90;;;;;;5155138;27;20492;-48
2022/04/25 02:53:29;;;;;;;1.90;1.70;;;9.50;99.90;;;;;;5155277;27;20445;-48
2022/04/25 02:55:56;;;;;;;1.70;1.60;;;9.30;99.90;;;;;;5154954;27;20470;-48
2022/04/25 02:58:24;;;;;;;2.57;2.00;;;9.30;99.90;;;;;;5154927;27;20539;-48
2022/04/25 03:00:52;;;;;;;2.90;1.90;;;9.40;99.90;;;;;;5154706;27;20422;-48
2022/04/25 03:03:20;;;;;;;2.27;1.80;;;9.50;99.90;;;;;;5154345;27;20563;-48
2022/04/25 03:05:50;;;;;;;2.60;1.77;;;9.60;99.90;;;;;;5155101;27;20437;-48
2022/04/25 03:08:18;;;;;;;2.20;1.40;;;9.60;99.90;;;;;;5154734;27;20496;-48
2022/04/25 03:10:46;;;;;;;2.00;1.90;;;9.60;99.90;;;;;;5155123;27;20437;-48
2022/04/25 03:13:14;;;;;;;2.50;1.47;;;9.70;99.90;;;;;;5154376;27;20467;-48
2022/04/25 03:15:42;;;;;;;1.43;1.20;;;9.60;99.90;;;;;;5154349;27;20958;-51
2022/04/25 03:18:10;;;;;;;1.30;1.10;;;9.40;99.90;;;;;;5154284;27;20460;-48
2022/04/25 03:20:36;;;;;;;3.90;1.40;;;9.40;99.90;;;;;;5154244;27;20439;-49
2022/04/25 03:23:06;;;;;;;1.37;1.27;;;9.40;99.90;;;;;;5153359;27;20564;-50
2022/04/25 03:25:33;;;;;;;1.57;1.10;;;9.60;99.90;;;;;;5154458;27;20451;-47
2022/04/25 03:28:00;;;;;;;1.30;1.03;;;9.40;99.90;;;;;;5201934;22;20578;-44
2022/04/25 03:30:28;;;;;;;1.50;1.20;;;9.20;99.90;;;;;;5133680;27;20462;-44
2022/04/25 03:32:56;;;;;;;2.07;1.07;;;9.30;99.90;;;;;;5133219;27;20425;-45
2022/04/25 03:35:24;;;;;;;1.30;1.10;;;9.40;99.90;;;;;;5133625;27;20442;-44
2022/04/25 03:37:52;;;;;;;1.60;1.40;;;9.40;99.90;;;;;;5133372;27;20442;-45
2022/04/25 03:40:20;;;;;;;2.40;1.47;;;9.30;99.90;;;;;;5133711;27;20462;-44
2022/04/25 03:42:47;;;;;;;2.50;1.67;;;9.40;99.90;;;;;;5133006;27;20471;-44
2022/04/25 03:45:17;;;;;;;2.37;1.57;;;9.40;99.90;;;;;;5133442;27;20478;-46
2022/04/25 03:47:45;;;;;;;1.67;1.57;;;9.40;99.90;;;;;;5133189;27;20466;-45
2022/04/25 03:50:14;;;;;;;1.57;1.47;;;9.50;99.90;;;;;;5133147;27;20438;-44
2022/04/25 03:52:43;;;;;;;1.93;1.50;;;9.50;99.90;;;;;;5132868;27;20493;-45
2022/04/25 03:57:58;;;;;;;1.63;1.50;;;9.60;99.90;;;;;;5132845;27;20423;-45
2022/04/25 04:00:26;;;;;;;1.83;1.70;;;9.70;99.90;;;;;;5132715;27;20545;-44
2022/04/25 04:02:53;;;;;;;2.17;1.70;;;9.70;99.90;;;;;;5132840;27;20562;-45
2022/04/25 04:05:20;;;;;;;2.40;2.10;;;9.70;99.90;;;;;;5132774;27;20473;-44
2022/04/25 04:07:48;;;;;;;3.73;2.10;;;9.60;99.90;;;;;;5132763;27;20971;-44
2022/04/25 04:10:16;;;;;;;4.37;2.80;;;9.40;99.90;;;;;;5132874;27;20507;-44
2022/04/25 04:12:46;;;;;;;4.93;3.13;;;8.70;99.90;;;;;;5132684;27;20529;-45
2022/04/25 04:15:15;;;;;;;3.20;2.33;;;8.40;99.90;;;;;;5132557;27;20449;-46
2022/04/25 04:17:42;;;;;;;5.63;3.50;;;8.20;99.90;;;;;;5132508;27;20506;-44
2022/04/25 04:20:11;;;;;;;3.70;2.80;;;8.20;99.90;;;;;;5132382;27;20445;-45
2022/04/25 04:22:38;;;;;;;4.70;4.20;;;8.40;99.90;;;;;;5132580;27;20480;-45
2022/04/25 04:25:07;;;;;;;3.90;3.57;;;8.30;99.90;;;;;;5132300;27;21011;-46
2022/04/25 04:27:34;;;;;;;4.03;3.63;;;8.10;99.90;;;;;;5132462;27;20533;-45
2022/04/25 04:30:02;;;;;;;3.40;3.10;;;8.10;99.90;;;;;;5132299;27;20497;-45
2022/04/25 04:32:30;;;;;;;4.27;3.30;;;8.00;99.90;;;;;;5132048;27;20872;-44
2022/04/25 04:34:57;;;;;;;3.63;2.47;;;8.10;99.90;;;;;;5131377;27;20470;-45
2022/04/25 04:37:25;;;;;;;3.10;2.57;;;8.30;99.90;;;;;;5132587;27;20445;-46
2022/04/25 04:40:28;;;;;;;4.17;3.87;;;8.20;99.90;;;;;;5132240;27;20457;-46
2022/04/25 04:42:41;;;;;;;8.73;4.40;;;8.30;99.90;;;;;;5131643;27;20474;-46
2022/04/25 04:45:11;;;;;;;3.97;3.60;;;8.30;99.90;;;;;;5131910;27;20518;-45
2022/04/25 04:47:41;;;;;;;6.03;3.40;;;8.40;99.90;;;;;;5132173;27;20445;-47
2022/04/25 04:50:14;;;;;;;2.80;2.60;;;8.50;99.90;;;;;;5132065;27;20535;-45
2022/04/25 04:52:42;;;;;;;4.13;3.77;;;8.30;99.90;;;;;;5131807;27;20438;-47
2022/04/25 04:55:10;;;;;;;5.33;4.63;;;8.00;99.90;;;;;;5132542;27;20505;-46
2022/04/25 04:57:38;;;;;;;4.50;4.10;;;8.10;99.90;;;;;;5131318;27;21117;-46
2022/04/25 05:00:08;;;;;;;4.50;4.10;;;8.20;99.90;;;;;;5131038;27;20936;-46
2022/04/25 05:02:35;;;;;;;35.47;26.40;;;8.20;99.90;;;;;;5131580;27;20509;-45
2022/04/25 05:05:05;;;;;;;5.20;4.70;;;8.30;99.90;;;;;;5131503;27;20506;-45
2022/04/25 05:07:32;;;;;;;6.17;4.17;;;8.30;99.90;;;;;;5131836;27;20437;-47
2022/04/25 05:09:59;;;;;;;5.60;5.00;;;8.40;99.90;;;;;;5131477;27;20485;-47
2022/04/25 05:12:27;;;;;;;5.87;5.03;;;8.50;99.90;;;;;;5131470;27;20471;-47
2022/04/25 05:14:54;;;;;;;5.20;4.37;;;8.50;99.90;;;;;;5131870;27;20433;-46
2022/04/25 05:17:22;;;;;;;58.47;12.50;;;8.50;99.90;;;;;;5131878;28;20437;-45
2022/04/25 05:19:49;;;;;;;28.20;9.70;;;8.70;99.90;;;;;;5131482;28;20549;-46
2022/04/25 05:22:18;;;;;;;5.97;5.37;;;8.70;99.90;;;;;;5130970;28;20520;-43
2022/04/25 05:24:45;;;;;;;6.30;5.23;;;8.90;99.90;;;;;;5131772;28;20525;-48
2022/04/25 05:27:12;;;;;;;24.70;6.70;;;9.00;99.90;;;;;;5131590;28;20840;-45
2022/04/25 05:29:39;;;;;;;4.87;3.80;;;9.10;99.90;;;;;;5131140;28;20477;-45
2022/04/25 05:32:07;;;;;;;5.30;3.50;;;9.10;99.90;;;;;;5131356;28;20506;-46
2022/04/25 05:34:34;;;;;;;4.47;4.07;;;9.10;99.90;;;;;;5131354;28;20924;-48
2022/04/25 05:37:01;;;;;;;5.43;4.90;;;9.20;99.90;;;;;;5131577;28;20467;-45
2022/04/25 05:39:30;;;;;;;3.57;3.27;;;9.30;99.90;;;;;;5131558;28;20462;-49
2022/04/25 05:41:57;;;;;;;3.67;3.30;;;9.30;99.90;;;;;;5131510;28;20532;-45
2022/04/25 05:44:24;;;;;;;3.70;3.30;;;9.40;99.90;;;;;;5131088;28;20522;-45
2022/04/25 05:46:51;;;;;;;3.57;3.27;;;9.40;99.90;;;;;;5134353;27;20441;-45
2022/04/25 05:52:05;;;;;;;3.37;3.07;;;9.60;99.90;;;;;;5134629;27;20759;-45
2022/04/25 05:54:34;;;;;;;3.97;3.63;;;9.60;99.90;;;;;;5134667;27;20445;-43
2022/04/25 05:57:01;;;;;;;5.00;4.23;;;9.60;99.90;;;;;;5135024;27;20959;-49
2022/04/25 05:59:29;;;;;;;4.13;3.70;;;9.60;99.90;;;;;;5134977;27;21032;-45
2022/04/25 06:01:57;;;;;;;5.60;5.10;;;9.40;99.90;;;;;;5135061;27;20449;-45
2022/04/25 06:04:23;;;;;;;4.70;4.30;;;9.60;99.90;;;;;;5134833;27;20505;-49
2022/04/25 06:06:50;;;;;;;4.87;4.47;;;9.70;99.90;;;;;;5135147;27;20441;-45
2022/04/25 06:09:19;;;;;;;4.23;3.83;;;9.70;99.90;;;;;;5135000;27;20461;-44
2022/04/25 06:11:49;;;;;;;5.97;5.37;;;9.80;99.90;;;;;;5134955;27;20453;-48
2022/04/25 06:14:16;;;;;;;7.50;4.90;;;9.80;99.90;;;;;;5133991;27;20982;-48
2022/04/25 06:16:43;;;;;;;4.70;4.30;;;9.70;99.90;;;;;;5133893;27;20990;-45
2022/04/25 06:19:10;;;;;;;5.97;5.47;;;9.60;99.90;;;;;;5133852;27;20544;-45
2022/04/25 06:21:37;;;;;;;6.33;4.23;;;9.60;99.90;;;;;;5133823;27;20440;-46
2022/04/25 06:24:05;;;;;;;4.03;3.63;;;9.50;99.90;;;;;;5133205;27;21038;-45
2022/04/25 06:26:34;;;;;;;6.47;4.50;;;9.50;99.90;;;;;;5133554;27;20429;-45
2022/04/25 06:29:02;;;;;;;5.67;5.10;;;9.60;99.90;;;;;;5134058;27;20899;-46
2022/04/25 06:31:29;;;;;;;3.88;3.47;;;9.40;99.90;;;;;;5134468;27;20433;-48
2022/04/25 06:33:57;;;;;;;4.20;3.87;;;9.40;99.90;;;;;;5134354;27;20214;-47
2022/04/25 06:36:24;;;;;;;5.37;4.40;;;9.40;99.90;;;;;;5134591;27;20848;-45
2022/04/25 06:38:51;;;;;;;3.53;3.23;;;9.50;99.90;;;;;;5134577;27;20886;-45
2022/04/25 06:41:18;;;;;;;4.00;3.70;;;9.60;99.90;;;;;;5133358;27;20526;-46
2022/04/25 06:43:45;;;;;;;3.67;3.37;;;9.50;99.90;;;;;;5133278;27;20526;-46
2022/04/25 06:46:14;;;;;;;4.60;3.50;;;9.30;99.90;;;;;;5133403;27;20490;-48
2022/04/25 06:49:19;;;;;;;3.87;3.57;;;9.40;99.90;;;;;;5133257;27;20496;-45
2022/04/25 06:51:28;;;;;;;4.37;3.97;;;9.40;99.90;;;;;;5133015;27;20504;-46
2022/04/25 06:53:55;;;;;;;3.87;3.30;;;9.40;99.90;;;;;;5133264;27;20444;-48
2022/04/25 06:56:22;;;;;;;8.77;4.83;;;9.50;99.90;;;;;;5133690;27;20947;-45
2022/04/25 06:58:49;;;;;;;7.10;5.70;;;9.60;99.90;;;;;;5133171;27;20987;-45
2022/04/25 07:01:17;;;;;;;4.70;4.30;;;9.50;99.90;;;;;;5134110;27;20437;-47
2022/04/25 07:03:44;;;;;;;5.70;3.43;;;9.60;99.90;;;;;;5133526;27;20476;-47
2022/04/25 07:06:11;;;;;;;4.07;3.67;;;9.70;99.90;;;;;;5115283;27;20521;-45
2022/04/25 07:08:37;;;;;;;4.30;3.90;;;9.60;99.90;;;;;;5112434;28;20924;-48
2022/04/25 07:11:04;;;;;;;3.83;3.50;;;9.60;99.90;;;;;;5112206;28;20578;-46
2022/04/25 07:13:31;;;;;;;4.60;3.40;;;9.70;99.90;;;;;;5111956;28;20439;-46
2022/04/25 07:15:58;;;;;;;3.40;2.47;;;9.80;99.90;;;;;;5123596;27;20525;-47
2022/04/25 07:18:27;;;;;;;3.60;2.70;;;10.00;99.90;;;;;;5132695;27;20986;-45
2022/04/25 07:20:54;;;;;;;2.67;2.43;;;10.00;99.90;;;;;;5132738;27;20484;-46
2022/04/25 07:28:53;;;;;;;4.60;4.20;;;10.10;99.90;;;;;;5131605;27;20506;-47
2022/04/25 07:31:21;;;;;;;2.73;2.53;;;10.10;99.90;;;;;;5133197;27;20445;-46
2022/04/25 07:33:49;;;;;;;3.50;2.20;;;10.20;99.90;;;;;;5133257;27;20488;-47
2022/04/25 07:36:17;;;;;;;2.33;2.13;;;10.30;99.90;;;;;;5132979;27;20438;-43
2022/04/25 07:38:45;;;;;;;2.83;2.63;;;10.40;99.90;;;;;;5132227;27;20868;-46
2022/04/25 07:41:14;;;;;;;3.27;2.80;;;10.30;99.90;;;;;;5132178;27;20441;-48
2022/04/25 07:43:41;;;;;;;20.53;5.53;;;10.30;99.90;;;;;;5131291;27;20492;-44
2022/04/25 07:46:08;;;;;;;4.97;4.27;;;10.20;99.90;;;;;;5131155;27;20449;-45
2022/04/25 07:48:35;;;;;;;19.73;5.30;;;10.20;99.90;;;;;;5132056;27;20536;-46
2022/04/25 07:51:04;;;;;;;16.00;6.13;;;10.30;99.90;;;;;;5132418;27;20530;-49
2022/04/25 07:53:31;;;;;;;12.37;7.90;;;10.30;99.90;;;;;;5132736;27;20988;-47
2022/04/25 07:55:58;;;;;;;58.13;23.33;;;10.30;99.90;;;;;;5132786;27;20448;-45
2022/04/25 07:58:26;;;;;;;6.20;4.17;;;10.50;99.90;;;;;;5132944;27;20469;-45
2022/04/25 08:00:52;;;;;;;4.30;3.37;;;10.80;99.90;;;;;;5132893;27;20434;-45
2022/04/25 08:03:19;;;;;;;3.50;2.70;;;10.90;99.90;;;;;;5132368;27;20499;-47
2022/04/25 08:05:46;;;;;;;4.77;3.70;;;11.00;99.90;;;;;;5132734;27;21014;-45
2022/04/25 08:08:15;;;;;;;4.70;3.57;;;11.20;99.90;;;;;;5131922;27;20508;-50
2022/04/25 08:10:42;;;;;;;3.73;2.70;;;11.50;99.90;;;;;;5131045;27;20438;-48
2022/04/25 08:18:43;;;;;;;27.97;24.20;;;12.00;99.90;;;;;;5052615;28;20438;-45
2022/04/25 08:21:10;;;;;;;99.20;16.37;;;12.00;99.90;;;;;;5111107;28;20523;-45
2022/04/25 08:23:40;;;;;;;2.77;1.70;;;11.90;99.90;;;;;;5110527;28;20527;-45
2022/04/25 08:26:07;;;;;;;1.87;1.50;;;12.00;99.90;;;;;;5111412;28;20535;-46
2022/04/25 08:28:35;;;;;;;2.37;2.10;;;12.20;99.90;;;;;;5110508;28;20474;-45
2022/04/25 08:31:02;;;;;;;13.43;3.93;;;12.50;99.90;;;;;;5110681;28;20520;-46
2022/04/25 08:33:29;;;;;;;13.33;3.07;;;12.70;99.90;;;;;;5110455;28;20466;-49
2022/04/25 08:35:56;;;;;;;261.07;31.83;;;13.00;99.90;;;;;;5110438;28;20879;-45
2022/04/25 08:38:24;;;;;;;52.90;12.17;;;13.10;99.90;;;;;;5110294;28;20462;-46
2022/04/25 08:40:52;;;;;;;35.23;6.00;;;13.40;99.90;;;;;;5110693;28;20442;-47
2022/04/25 08:43:19;;;;;;;1.50;1.30;;;13.70;99.90;;;;;;5110235;28;20796;-46
2022/04/25 08:45:47;;;;;;;4.60;1.77;;;14.00;99.90;;;;;;5110873;28;20856;-45
2022/04/25 08:48:14;;;;;;;15.27;4.40;;;14.30;99.90;;;;;;5111421;28;20546;-45
2022/04/25 08:50:42;;;;;;;7.63;2.43;;;14.60;99.90;;;;;;5111268;28;20474;-45
2022/04/25 08:53:13;;;;;;;1.67;1.27;;;14.90;99.90;;;;;;5111210;28;20823;-42
2022/04/25 08:55:40;;;;;;;6.40;2.40;;;15.00;99.90;;;;;;5111531;28;20916;-46
2022/04/25 08:58:08;;;;;;;3.43;1.70;;;14.90;99.90;;;;;;5110209;28;20469;-50
2022/04/25 09:00:36;;;;;;;123.57;19.13;;;15.10;99.90;;;;;;5109515;28;20526;-46
2022/04/25 09:03:03;;;;;;;3.73;1.40;;;15.30;99.90;;;;;;5109132;28;20438;-48
2022/04/25 09:05:30;;;;;;;15.20;2.17;;;15.00;99.90;;;;;;5109418;28;20581;-43
2022/04/25 09:07:58;;;;;;;8.57;1.90;;;14.40;99.90;;;;;;5109930;28;20438;-45
2022/04/25 09:10:26;;;;;;;312.07;37.37;;;14.40;99.90;;;;;;5110230;28;20469;-47
2022/04/25 09:12:53;;;;;;;12.20;1.93;;;14.10;99.90;;;;;;5110497;28;20439;-45
2022/04/25 09:15:24;;;;;;;1.60;1.10;;;14.10;99.90;;;;;;5111288;28;20439;-46
2022/04/25 09:17:53;;;;;;;28.73;4.17;;;14.10;99.90;;;;;;5111390;28;20466;-45
2022/04/25 09:20:21;;;;;;;2.43;1.10;;;14.30;99.90;;;;;;5109244;28;20549;-46
2022/04/25 09:22:48;;;;;;;11.53;2.27;;;14.60;99.90;;;;;;5109701;28;20443;-45
2022/04/25 09:25:17;;;;;;;5.50;1.60;;;14.80;99.90;;;;;;5110121;28;20517;-46
2022/04/25 09:27:46;;;;;;;1.40;1.23;;;14.80;99.90;;;;;;5109978;28;20492;-45
2022/04/25 09:30:16;;;;;;;7.60;1.60;;;15.00;99.90;;;;;;5111419;28;20816;-45
2022/04/25 09:32:45;;;;;;;1.80;1.20;;;15.00;99.90;;;;;;5112470;27;20536;-50
2022/04/25 09:35:26;;;;;;;4.50;1.53;;;14.80;99.90;;;;;;5152463;27;20437;-45
2022/04/25 09:37:53;;;;;;;3.03;1.20;;;14.80;99.90;;;;;;5152045;27;20471;-45
2022/04/25 09:40:22;;;;;;;2.20;1.13;;;14.90;99.90;;;;;;5136365;27;20513;-46
2022/04/25 09:43:03;;;;;;;4.83;1.80;;;14.90;99.90;;;;;;5131046;28;20525;-45
2022/04/25 09:45:30;;;;;;;64.53;12.90;;;15.00;99.90;;;;;;5131786;28;20473;-46
2022/04/25 09:47:59;;;;;;;7.93;3.60;;;14.70;99.90;;;;;;5130577;28;20457;-45
2022/04/25 09:50:27;;;;;;;4.33;1.20;;;14.20;99.90;;;;;;5130304;28;20469;-46
2022/04/25 09:52:57;;;;;;;101.60;12.03;;;14.00;99.90;;;;;;5128722;28;20472;-48
2022/04/25 09:55:25;;;;;;;11.60;1.80;;;14.00;99.90;;;;;;5129423;28;20506;-45
2022/04/25 09:57:53;;;;;;;11.13;2.20;;;13.90;99.90;;;;;;5129886;28;20444;-45
2022/04/25 10:00:34;;;;;;;6.80;4.33;;;13.80;99.90;;;;;;5129841;28;20442;-47
2022/04/25 10:03:03;;;;;;;1.43;1.23;;;13.70;99.90;;;;;;5121872;28;20434;-45
2022/04/25 10:05:39;;;;;;;1.60;1.10;;;13.60;99.90;;;;;;5110181;28;21067;-45
2022/04/25 10:08:07;;;;;;;4.53;1.40;;;13.60;99.90;;;;;;5110340;28;20470;-45
2022/04/25 10:10:34;;;;;;;5.87;2.00;;;13.70;99.90;;;;;;5109642;28;20491;-45
2022/04/25 10:13:02;;;;;;;1.60;0.90;;;13.80;99.90;;;;;;5109061;28;20550;-45
2022/04/25 10:15:29;;;;;;;16.53;2.97;;;13.80;99.90;;;;;;5109258;28;20491;-45
2022/04/25 10:17:56;;;;;;;2.23;1.17;;;14.00;99.90;;;;;;5109033;28;20469;-46
2022/04/25 10:20:25;;;;;;;2.43;1.03;;;13.80;99.90;;;;;;5109633;28;20470;-45
2022/04/25 10:22:53;;;;;;;6.00;1.77;;;14.00;99.90;;;;;;5109245;28;20925;-46
2022/04/25 10:25:20;;;;;;;5.00;1.93;;;14.20;99.90;;;;;;5109807;28;20565;-46
2022/04/25 10:27:48;;;;;;;1.20;0.90;;;14.40;99.90;;;;;;5108927;28;20891;-47
2022/04/25 10:30:18;;;;;;;3.07;1.40;;;14.70;99.90;;;;;;5110512;28;20482;-45
2022/04/25 10:32:45;;;;;;;9.40;2.67;;;15.10;99.90;;;;;;5111242;28;20438;-44
2022/04/25 10:35:18;;;;;;;1.00;0.90;;;15.20;99.90;;;;;;5114084;28;20923;-45
2022/04/25 10:37:48;;;;;;;9.00;2.30;;;15.40;99.90;;;;;;5113221;28;20452;-50
2022/04/25 10:44:10;;;;;;;2.43;1.50;;;15.40;99.90;;;;;;5117376;27;20441;-45
2022/04/25 10:46:16;;;;;;;32.97;8.20;;;15.30;99.90;;;;;;5077582;28;20423;-45
2022/04/25 10:49:27;;;;;;;21.07;4.70;;;15.10;99.90;;;;;;5113474;28;20992;-45
2022/04/25 10:51:54;;;;;;;18.13;5.47;;;15.30;99.90;;;;;;5011592;28;20530;-50
2022/04/25 10:54:23;;;;;;;29.33;5.90;;;15.60;99.90;;;;;;5117538;27;20914;-46
2022/04/25 10:57:15;;;;;;;9.20;1.47;;;15.60;99.90;;;;;;5133001;27;20540;-47
2022/04/25 10:59:42;;;;;;;74.73;19.37;;;15.10;99.90;;;;;;5133622;27;20486;-45
2022/04/25 11:02:21;;;;;;;103.20;17.17;;;15.40;99.90;;;;;;5133767;27;20473;-46
2022/04/25 11:04:48;;;;;;;35.33;6.43;;;15.60;99.90;;;;;;5133500;27;20551;-45
2022/04/25 11:07:21;;;;;;;59.20;6.60;;;15.90;99.90;;;;;;5133877;27;20477;-47
2022/04/25 11:09:49;;;;;;;103.03;23.50;;;16.00;99.90;;;;;;5133997;27;20453;-45
2022/04/25 11:12:17;;;;;;;64.30;10.20;;;16.10;99.90;;;;;;5133841;27;20442;-45
2022/04/25 11:14:57;;;;;;;30.60;6.00;;;16.20;99.90;;;;;;5134135;27;20444;-45
2022/04/25 11:17:24;;;;;;;97.03;17.57;;;16.10;99.90;;;;;;5132903;27;20950;-45
2022/04/25 11:19:54;;;;;;;24.77;5.73;;;16.10;99.90;;;;;;5133327;27;20548;-44
2022/04/25 11:22:49;;;;;;;42.67;7.77;;;15.80;99.90;;;;;;5133641;27;20438;-45
2022/04/25 11:25:43;;;;;;;339.33;68.67;;;15.80;99.90;;;;;;5133688;27;21002;-47
2022/04/25 11:28:12;;;;;;;36.87;7.20;;;16.10;99.90;;;;;;5132509;27;20857;-45
2022/04/25 11:30:41;;;;;;;27.77;8.10;;;16.40;99.90;;;;;;5115125;27;20952;-46
2022/04/25 11:33:09;;;;;;;35.67;8.00;;;16.60;99.90;;;;;;5132827;27;20469;-45
2022/04/25 11:35:37;;;;;;;16.27;5.50;;;16.50;99.90;;;;;;5133410;27;20436;-45
2022/04/25 11:38:05;;;;;;;58.17;13.50;;;16.40;99.90;;;;;;5133127;27;20489;-45
2022/04/25 11:40:32;;;;;;;28.67;7.80;;;16.50;99.90;;;;;;5132988;27;20483;-48
2022/04/25 11:43:03;;;;;;;53.37;14.80;;;16.50;99.90;;;;;;5132829;27;20456;-45
2022/04/25 11:45:31;;;;;;;38.20;9.87;;;16.30;99.90;;;;;;5133358;27;20484;-45
2022/04/25 11:47:59;;;;;;;12.73;2.50;;;16.30;99.90;;;;;;5133169;27;20489;-49
2022/04/25 11:50:28;;;;;;;13.00;4.17;;;16.30;99.90;;;;;;5133153;27;20946;-47
2022/04/25 11:52:56;;;;;;;9.50;3.50;;;16.40;99.90;;;;;;5132806;27;20532;-46
2022/04/25 11:55:33;;;;;;;29.63;7.50;;;16.30;99.90;;;;;;5132436;27;20438;-48
2022/04/25 11:58:01;;;;;;;31.33;6.17;;;16.20;99.90;;;;;;5132789;27;20457;-46
2022/04/25 12:00:28;;;;;;;25.67;5.90;;;16.20;99.90;;;;;;5132866;27;20499;-45
2022/04/25 12:02:55;;;;;;;9.50;2.87;;;16.20;99.90;;;;;;5131692;27;20442;-47
2022/04/25 12:05:26;;;;;;;13.23;4.60;;;16.40;99.90;;;;;;5131421;27;20473;-45
2022/04/25 12:16:10;;;;;;;9.07;3.27;;;16.70;99.40;;;;;;5132371;27;20824;-49
2022/04/25 12:18:48;;;;;;;15.20;3.73;;;17.00;99.90;;;;;;5132018;27;20458;-46
2022/04/25 12:21:17;;;;;;;371.63;48.30;;;17.10;99.60;;;;;;5132385;27;20447;-45
2022/04/25 12:23:48;;;;;;;10.70;2.30;;;17.10;99.90;;;;;;5131645;27;20438;-48
2022/04/25 12:26:20;;;;;;;1048.23;135.67;;;17.00;98.70;;;;;;5131416;27;20481;-47
2022/04/25 12:28:53;;;;;;;1.60;1.10;;;16.70;98.40;;;;;;5131126;27;20491;-49
2022/04/25 12:31:20;;;;;;;18.00;2.20;;;16.50;99.90;;;;;;5131398;27;20463;-46
2022/04/25 12:33:48;;;;;;;16.00;3.10;;;16.80;99.90;;;;;;5130968;27;20438;-46
2022/04/25 12:36:18;;;;;;;35.77;4.37;;;16.90;99.90;;;;;;5120984;27;20439;-44
2022/04/25 12:38:52;;;;;;;15.83;2.93;;;16.90;99.90;;;;;;5110941;28;20462;-46
2022/04/25 12:41:22;;;;;;;67.03;10.10;;;16.60;99.20;;;;;;5111668;28;20538;-48
2022/04/25 12:43:53;;;;;;;655.37;79.63;;;16.30;99.90;;;;;;5112072;28;20847;-48
2022/04/25 12:46:35;;;;;;;71.97;7.50;;;16.00;97.30;;;;;;5111509;28;20479;-45
2022/04/25 12:49:05;;;;;;;2.30;1.30;;;15.50;97.50;;;;;;5111702;28;20477;-43
2022/04/25 12:51:40;;;;;;;48.83;8.33;;;15.30;99.90;;;;;;5111648;28;20434;-46
2022/04/25 12:54:24;;;;;;;155.43;26.83;;;15.50;99.80;;;;;;5110882;28;20508;-49
2022/04/25 12:56:52;;;;;;;120.73;20.23;;;15.60;99.60;;;;;;5109846;28;20442;-48
2022/04/25 12:59:28;;;;;;;21.23;3.63;;;15.60;99.50;;;;;;5110102;28;20463;-47
2022/04/25 13:02:02;;;;;;;35.17;5.90;;;15.60;98.40;;;;;;5109725;28;20647;-45
2022/04/25 13:04:29;;;;;;;6.63;1.77;;;15.60;98.80;;;;;;5109707;28;20868;-47
2022/04/25 13:06:56;;;;;;;1.37;1.00;;;15.80;97.30;;;;;;5109515;28;20513;-47
2022/04/25 13:09:23;;;;;;;8.60;1.97;;;15.80;99.50;;;;;;5109142;28;20542;-47
2022/04/25 13:11:50;;;;;;;1.40;1.10;;;16.10;99.90;;;;;;5110786;28;20525;-45
2022/04/25 13:14:17;;;;;;;2.20;0.93;;;16.20;97.50;;;;;;5111167;28;20435;-45
2022/04/25 13:16:45;;;;;;;4.00;1.13;;;16.20;96.00;;;;;;5111242;28;20525;-47
2022/04/25 13:19:12;;;;;;;5.40;1.90;;;16.30;97.60;;;;;;5110711;28;20841;-45
2022/04/25 13:21:42;;;;;;;2.50;1.00;;;16.30;95.00;;;;;;5118543;28;20468;-48
2022/04/25 13:24:09;;;;;;;2.37;1.50;;;16.30;95.90;;;;;;5130203;28;20444;-48
2022/04/25 13:26:36;;;;;;;131.07;26.23;;;16.40;97.20;;;;;;5130412;28;20469;-46
2022/04/25 13:29:03;;;;;;;12.87;4.30;;;16.30;95.80;;;;;;5130320;28;20462;-49